Time;durP1;ratioP1;P1;durP2;ratioP2;P2;SDS_P1;SDS_P2;PMS_P1;PMS_P2;Temp;Humidity;BMP_temperature;BMP_pressure;BME280_temperature;BME280_humidity;BME280_pressure;Samples;Min_cycle;Max_cycle;Signal;HPM_P1;HPM_P2
2023/11/30 00:00:23;;;;;;;29.92;17.42;;;3.10;99.90;;;;;;4969544;28;20030;-52
2023/11/30 00:02:49;;;;;;;25.40;17.30;;;3.10;99.90;;;;;;4968084;28;20043;-53
2023/11/30 00:05:14;;;;;;;24.52;17.27;;;3.10;99.90;;;;;;4969498;28;20043;-54
2023/11/30 00:07:40;;;;;;;24.58;17.58;;;3.10;99.90;;;;;;4968494;28;20114;-53
2023/11/30 00:10:06;;;;;;;24.13;17.67;;;3.10;99.90;;;;;;4950862;28;20114;-51
2023/11/30 00:12:31;;;;;;;29.40;17.55;;;3.20;99.90;;;;;;4968040;28;20042;-50
2023/11/30 00:14:57;;;;;;;23.25;16.55;;;3.20;99.90;;;;;;4967359;28;20031;-52
2023/11/30 00:17:22;;;;;;;26.48;18.13;;;3.20;99.90;;;;;;4950590;28;20399;-53
2023/11/30 00:19:48;;;;;;;27.67;17.92;;;3.10;99.90;;;;;;4948657;28;20404;-49
2023/11/30 00:22:13;;;;;;;23.23;16.77;;;3.10;99.90;;;;;;4948365;28;20137;-50
2023/11/30 00:24:39;;;;;;;23.58;16.63;;;3.10;99.90;;;;;;4931528;29;20394;-51
2023/11/30 00:27:04;;;;;;;24.08;16.33;;;3.20;99.90;;;;;;4948597;29;20047;-53
2023/11/30 00:29:30;;;;;;;25.45;16.52;;;3.20;99.90;;;;;;4949156;29;20433;-49
2023/11/30 00:31:55;;;;;;;29.08;19.05;;;3.10;99.90;;;;;;4937688;28;20062;-54
2023/11/30 00:34:22;;;;;;;28.33;18.02;;;3.20;99.90;;;;;;4967532;28;20131;-52
2023/11/30 00:36:47;;;;;;;27.65;17.90;;;3.20;99.90;;;;;;4967703;28;20481;-54
2023/11/30 00:39:13;;;;;;;26.20;17.52;;;3.20;99.90;;;;;;4966665;28;20027;-49
2023/11/30 00:41:38;;;;;;;26.35;18.35;;;3.20;99.90;;;;;;4967718;28;20448;-54
2023/11/30 00:44:04;;;;;;;26.83;17.70;;;3.10;99.90;;;;;;4967430;28;20034;-51
2023/11/30 00:46:29;;;;;;;25.02;17.45;;;3.20;99.90;;;;;;4967638;28;20117;-47
2023/11/30 00:48:55;;;;;;;28.67;17.58;;;3.20;99.90;;;;;;4989148;22;20047;-55
2023/11/30 00:51:20;;;;;;;26.35;17.70;;;3.30;99.90;;;;;;4968340;28;20038;-54
2023/11/30 00:53:46;;;;;;;24.85;17.33;;;3.20;99.90;;;;;;4952570;28;20023;-50
2023/11/30 00:56:12;;;;;;;26.13;18.25;;;3.20;99.90;;;;;;4970424;28;20035;-52
2023/11/30 00:58:37;;;;;;;28.08;17.83;;;3.20;99.90;;;;;;4970718;28;20105;-48
2023/11/30 01:01:03;;;;;;;24.80;17.25;;;3.20;99.90;;;;;;4953055;28;20043;-53
2023/11/30 01:03:28;;;;;;;31.55;19.27;;;3.20;99.90;;;;;;4970046;28;20025;-54
2023/11/30 01:05:54;;;;;;;28.05;18.17;;;3.20;99.90;;;;;;4953074;28;20038;-47
2023/11/30 01:08:20;;;;;;;30.58;19.70;;;3.10;99.90;;;;;;4970247;28;20023;-49
2023/11/30 01:10:45;;;;;;;29.77;19.63;;;3.10;99.90;;;;;;4970104;28;20023;-52
2023/11/30 01:13:11;;;;;;;29.67;18.83;;;3.20;99.90;;;;;;4969876;28;20217;-52
2023/11/30 01:15:37;;;;;;;25.45;17.27;;;3.20;99.90;;;;;;4970234;28;20023;-50
2023/11/30 01:18:03;;;;;;;28.25;17.65;;;3.20;99.90;;;;;;4969984;28;20030;-55
2023/11/30 01:20:29;;;;;;;25.90;17.70;;;3.20;99.90;;;;;;4970004;28;20023;-51
2023/11/30 01:22:55;;;;;;;25.92;17.48;;;3.20;99.90;;;;;;4969817;28;20248;-51
2023/11/30 01:25:20;;;;;;;22.70;16.42;;;3.20;99.90;;;;;;4952708;28;20030;-50
2023/11/30 01:27:47;;;;;;;25.30;17.67;;;3.20;99.90;;;;;;4970143;28;20029;-53
2023/11/30 01:30:12;;;;;;;21.88;16.25;;;3.30;99.90;;;;;;4969877;28;20030;-51
2023/11/30 01:32:38;;;;;;;25.95;15.95;;;3.30;99.90;;;;;;4969520;28;20118;-52
2023/11/30 01:35:04;;;;;;;32.92;19.52;;;3.40;99.90;;;;;;4952493;28;20139;-54
2023/11/30 01:37:30;;;;;;;21.27;16.48;;;3.40;99.90;;;;;;4969854;28;20019;-50
2023/11/30 01:39:55;;;;;;;22.23;15.18;;;3.50;99.90;;;;;;4969636;28;20037;-52
2023/11/30 01:42:21;;;;;;;26.65;15.63;;;3.50;99.90;;;;;;4952339;28;20522;-55
2023/11/30 01:44:47;;;;;;;24.55;16.90;;;3.50;99.90;;;;;;4952325;28;20026;-53
2023/11/30 01:47:13;;;;;;;25.75;16.08;;;3.60;99.90;;;;;;4969725;28;20038;-54
2023/11/30 01:49:38;;;;;;;23.67;17.10;;;3.50;99.90;;;;;;4969971;28;20061;-56
2023/11/30 01:52:04;;;;;;;25.48;16.83;;;3.50;99.90;;;;;;4973055;28;20031;-55
2023/11/30 01:54:30;;;;;;;24.58;16.90;;;3.40;99.90;;;;;;4972900;28;20035;-58
2023/11/30 01:56:56;;;;;;;25.90;17.08;;;3.40;99.90;;;;;;4973190;28;20034;-53
2023/11/30 01:59:22;;;;;;;24.65;16.55;;;3.40;99.90;;;;;;4972985;28;20502;-55
2023/11/30 02:01:47;;;;;;;23.25;16.70;;;3.40;99.90;;;;;;4973063;28;20031;-53
2023/11/30 02:04:15;;;;;;;22.10;15.30;;;3.40;99.90;;;;;;4973153;28;20030;-53
2023/11/30 02:06:44;;;;;;;22.25;15.35;;;3.40;99.90;;;;;;4973088;28;20172;-54
2023/11/30 02:09:11;;;;;;;26.98;17.33;;;3.50;99.90;;;;;;4972882;28;20407;-54
2023/11/30 02:11:38;;;;;;;23.58;16.42;;;3.60;99.90;;;;;;4955437;28;20026;-51
2023/11/30 02:14:03;;;;;;;24.25;15.73;;;3.50;99.90;;;;;;4972593;28;20051;-55
2023/11/30 02:16:29;;;;;;;24.02;16.77;;;3.50;99.90;;;;;;4972621;28;20023;-52
2023/11/30 02:18:54;;;;;;;21.85;15.57;;;3.50;99.90;;;;;;4972708;28;20558;-50
2023/11/30 02:21:20;;;;;;;26.33;16.42;;;3.50;99.90;;;;;;4972915;28;20363;-50
2023/11/30 02:23:47;;;;;;;23.95;16.42;;;3.50;99.90;;;;;;4972385;28;20027;-52
2023/11/30 02:26:13;;;;;;;27.25;18.17;;;3.50;99.90;;;;;;4972662;28;20096;-53
2023/11/30 02:28:38;;;;;;;23.45;16.38;;;3.50;99.90;;;;;;4972566;28;20023;-51
2023/11/30 02:31:04;;;;;;;23.30;16.85;;;3.40;99.90;;;;;;4972581;28;20077;-52
2023/11/30 02:33:29;;;;;;;24.02;15.65;;;3.30;99.90;;;;;;4972242;28;20052;-53
2023/11/30 02:35:55;;;;;;;23.75;16.95;;;3.20;99.90;;;;;;4955258;28;20398;-53
2023/11/30 02:38:21;;;;;;;29.23;17.77;;;3.10;99.90;;;;;;4973169;28;20023;-52
2023/11/30 02:40:46;;;;;;;26.10;16.75;;;3.20;99.90;;;;;;4972645;28;20027;-52
2023/11/30 02:43:12;;;;;;;26.67;18.27;;;3.30;99.90;;;;;;4972208;28;20095;-52
2023/11/30 02:45:37;;;;;;;25.52;17.63;;;3.20;99.90;;;;;;4972314;28;20026;-52
2023/11/30 02:48:03;;;;;;;24.63;17.55;;;3.00;99.90;;;;;;4954966;28;20505;-49
2023/11/30 02:50:28;;;;;;;23.75;16.73;;;2.90;99.90;;;;;;4971886;28;20135;-52
2023/11/30 02:52:54;;;;;;;24.73;17.48;;;2.80;99.90;;;;;;4971890;28;20100;-51
2023/11/30 02:55:20;;;;;;;23.27;17.00;;;2.70;99.90;;;;;;4972196;28;20118;-51
2023/11/30 02:57:45;;;;;;;26.08;16.92;;;2.70;99.90;;;;;;4972416;28;20094;-49
2023/11/30 03:00:11;;;;;;;27.63;18.15;;;2.70;99.90;;;;;;4972195;28;20431;-52
2023/11/30 03:02:37;;;;;;;30.38;17.73;;;2.70;99.90;;;;;;4971093;28;20106;-51
2023/11/30 03:05:03;;;;;;;30.33;18.13;;;2.60;99.90;;;;;;4972055;28;20035;-53
2023/11/30 03:07:28;;;;;;;23.55;17.40;;;2.70;99.90;;;;;;4954677;28;20031;-55
2023/11/30 03:09:54;;;;;;;27.92;17.02;;;2.70;99.90;;;;;;4954735;28;20117;-51
2023/11/30 03:12:19;;;;;;;27.60;17.27;;;2.70;99.90;;;;;;4971781;28;20039;-55
2023/11/30 03:14:46;;;;;;;23.52;16.83;;;2.70;99.90;;;;;;4971933;28;20071;-54
2023/11/30 03:17:11;;;;;;;24.35;16.92;;;2.70;99.90;;;;;;4954689;28;20027;-55
2023/11/30 03:19:41;;;;;;;25.05;17.15;;;2.80;99.90;;;;;;4971934;28;20035;-51
2023/11/30 03:22:06;;;;;;;28.17;18.38;;;2.70;99.90;;;;;;4971833;28;20034;-54
2023/11/30 03:24:32;;;;;;;24.80;17.05;;;2.90;99.90;;;;;;4954380;28;20023;-53
2023/11/30 03:26:57;;;;;;;26.55;17.33;;;2.90;99.90;;;;;;4972006;28;20038;-52
2023/11/30 03:29:23;;;;;;;25.73;16.98;;;2.90;99.90;;;;;;4971890;28;20035;-53
2023/11/30 03:31:48;;;;;;;27.75;18.05;;;2.90;99.90;;;;;;4954598;28;20027;-50
2023/11/30 03:34:14;;;;;;;25.80;17.20;;;3.00;99.90;;;;;;4971782;28;20030;-54
2023/11/30 03:36:39;;;;;;;24.65;16.20;;;3.00;99.90;;;;;;4971654;28;20026;-51
2023/11/30 03:39:05;;;;;;;22.58;15.43;;;3.00;99.90;;;;;;4954213;28;20417;-50
2023/11/30 03:41:30;;;;;;;25.38;16.70;;;3.00;99.90;;;;;;4971719;28;20076;-51
2023/11/30 03:43:56;;;;;;;26.13;16.00;;;3.10;99.90;;;;;;4953949;28;20027;-51
2023/11/30 03:46:26;;;;;;;22.23;16.20;;;3.20;99.90;;;;;;4971504;28;20478;-50
2023/11/30 03:48:52;;;;;;;27.90;15.75;;;3.20;99.90;;;;;;4971412;28;20077;-51
2023/11/30 03:51:18;;;;;;;24.50;17.25;;;3.10;99.90;;;;;;4971004;28;20104;-51
2023/11/30 03:53:43;;;;;;;21.67;15.65;;;3.10;99.90;;;;;;4971067;28;20027;-51
2023/11/30 03:56:09;;;;;;;25.80;17.20;;;3.20;99.90;;;;;;4971443;28;20057;-53
2023/11/30 03:58:35;;;;;;;23.75;17.25;;;3.30;99.90;;;;;;4953928;28;20037;-52
2023/11/30 04:01:00;;;;;;;23.48;16.50;;;3.30;99.90;;;;;;4971252;28;20092;-51
2023/11/30 04:03:26;;;;;;;22.20;16.42;;;3.30;99.90;;;;;;4970889;28;20027;-54
2023/11/30 04:05:51;;;;;;;28.65;17.67;;;3.30;99.90;;;;;;4953642;28;20023;-53
2023/11/30 04:08:17;;;;;;;22.65;15.95;;;3.30;99.90;;;;;;4971155;28;20501;-55
2023/11/30 04:10:43;;;;;;;28.55;18.55;;;3.30;99.90;;;;;;4971096;28;20074;-54
2023/11/30 04:13:08;;;;;;;24.45;16.83;;;3.20;99.90;;;;;;4970741;28;20058;-51
2023/11/30 04:15:34;;;;;;;32.05;17.42;;;3.10;99.90;;;;;;4971129;28;20061;-55
2023/11/30 04:18:00;;;;;;;27.35;18.45;;;3.20;99.90;;;;;;4970903;28;20022;-51
2023/11/30 04:20:25;;;;;;;28.35;18.38;;;3.20;99.90;;;;;;4953432;28;20023;-56
2023/11/30 04:22:50;;;;;;;23.52;16.70;;;3.10;99.90;;;;;;4953294;28;20402;-56
2023/11/30 04:25:16;;;;;;;25.77;17.95;;;3.10;99.90;;;;;;4970821;28;20046;-50
2023/11/30 04:27:42;;;;;;;31.02;17.77;;;3.10;99.90;;;;;;4953532;28;20117;-50
2023/11/30 04:30:07;;;;;;;28.00;18.55;;;3.10;99.90;;;;;;4970827;28;20037;-50
2023/11/30 04:32:33;;;;;;;30.05;18.63;;;3.00;99.90;;;;;;4953286;28;20502;-53
2023/11/30 04:34:59;;;;;;;31.38;19.05;;;3.00;99.90;;;;;;4953130;28;20022;-53
2023/11/30 04:37:24;;;;;;;27.67;17.05;;;3.00;99.90;;;;;;4970914;28;20030;-52
2023/11/30 04:39:50;;;;;;;25.85;17.45;;;2.90;99.90;;;;;;4970721;28;20023;-52
2023/11/30 04:42:15;;;;;;;29.38;19.23;;;2.90;99.90;;;;;;4970855;28;20059;-50
2023/11/30 04:44:41;;;;;;;29.45;18.40;;;2.90;99.90;;;;;;4970443;28;20053;-50
2023/11/30 04:47:06;;;;;;;30.52;19.42;;;3.10;99.90;;;;;;4970595;28;20030;-53
2023/11/30 04:49:32;;;;;;;29.02;19.92;;;3.10;99.90;;;;;;4952784;28;20609;-55
2023/11/30 04:51:57;;;;;;;28.67;18.85;;;3.10;99.90;;;;;;4953084;28;20137;-52
2023/11/30 04:54:23;;;;;;;27.77;18.10;;;3.00;99.90;;;;;;4970250;28;20379;-50
2023/11/30 04:56:48;;;;;;;33.03;19.20;;;2.90;99.90;;;;;;4970372;28;20023;-51
2023/11/30 04:59:14;;;;;;;28.00;18.27;;;2.80;99.90;;;;;;4970312;28;20027;-48
2023/11/30 05:01:39;;;;;;;26.48;17.90;;;2.80;99.90;;;;;;4970195;28;20026;-48
2023/11/30 05:04:05;;;;;;;28.50;19.20;;;2.80;99.90;;;;;;4970034;28;20030;-54
2023/11/30 05:06:30;;;;;;;30.27;18.02;;;2.80;99.90;;;;;;4970198;28;20034;-50
2023/11/30 05:08:56;;;;;;;30.40;19.02;;;2.90;99.90;;;;;;4952870;28;20069;-50
2023/11/30 05:11:22;;;;;;;28.17;18.88;;;2.90;99.90;;;;;;4970083;28;20043;-51
2023/11/30 05:13:47;;;;;;;28.02;18.63;;;2.90;99.90;;;;;;4969898;28;20504;-52
2023/11/30 05:16:14;;;;;;;25.50;17.17;;;2.90;99.90;;;;;;4970070;28;20026;-50
2023/11/30 05:18:39;;;;;;;27.52;17.98;;;2.90;99.90;;;;;;4969984;28;20034;-47
2023/11/30 05:21:05;;;;;;;34.95;18.77;;;2.90;99.90;;;;;;4970131;28;20490;-50
2023/11/30 05:23:31;;;;;;;24.55;17.40;;;3.00;99.90;;;;;;4969971;28;20110;-52
2023/11/30 05:25:57;;;;;;;30.02;18.05;;;3.00;99.90;;;;;;4969706;28;20038;-47
2023/11/30 05:28:22;;;;;;;25.20;16.67;;;3.00;99.90;;;;;;4970352;28;20100;-48
2023/11/30 05:30:48;;;;;;;28.50;18.17;;;3.00;99.90;;;;;;4970177;28;20027;-51
2023/11/30 05:33:15;;;;;;;27.05;16.23;;;3.10;99.90;;;;;;4970092;28;20027;-52
2023/11/30 05:35:40;;;;;;;28.48;18.23;;;3.10;99.90;;;;;;4970350;28;20097;-55
2023/11/30 05:38:06;;;;;;;24.65;17.08;;;3.10;99.90;;;;;;4970383;28;20079;-52
2023/11/30 05:40:32;;;;;;;25.27;17.30;;;3.10;99.90;;;;;;4969902;28;20098;-50
2023/11/30 05:42:57;;;;;;;28.88;17.58;;;3.10;99.90;;;;;;4969871;28;20027;-53
2023/11/30 05:45:23;;;;;;;26.00;17.05;;;3.10;99.90;;;;;;4970103;28;20027;-52
2023/11/30 05:47:48;;;;;;;28.55;18.67;;;3.00;99.90;;;;;;4970087;28;20064;-52
2023/11/30 05:50:14;;;;;;;26.38;16.25;;;3.00;99.90;;;;;;4969316;28;20509;-52
2023/11/30 05:52:39;;;;;;;27.42;15.95;;;3.00;99.90;;;;;;4952093;28;20371;-49
2023/11/30 05:55:07;;;;;;;26.30;16.60;;;3.00;99.90;;;;;;4969897;28;20371;-54
2023/11/30 05:57:33;;;;;;;29.58;16.98;;;2.90;99.90;;;;;;4970210;28;20031;-56
2023/11/30 05:59:59;;;;;;;23.05;15.93;;;2.90;99.90;;;;;;4969981;28;20048;-54
2023/11/30 06:02:26;;;;;;;28.02;15.43;;;2.90;99.90;;;;;;4952705;28;20490;-53
2023/11/30 06:04:53;;;;;;;23.95;15.23;;;2.90;99.90;;;;;;4969858;28;20482;-51
2023/11/30 06:07:19;;;;;;;24.25;15.63;;;2.90;99.90;;;;;;4969893;28;20038;-50
2023/11/30 06:09:45;;;;;;;26.05;16.23;;;2.90;99.90;;;;;;4969627;28;20133;-50
2023/11/30 06:12:11;;;;;;;22.58;16.00;;;2.90;99.90;;;;;;4969535;28;20058;-52
2023/11/30 06:14:36;;;;;;;24.58;16.30;;;2.90;99.90;;;;;;4969543;28;20039;-51
2023/11/30 06:17:02;;;;;;;20.33;13.68;;;2.90;99.90;;;;;;4952352;28;20026;-53
2023/11/30 06:19:28;;;;;;;23.33;15.52;;;2.90;99.90;;;;;;4969942;28;20045;-52
2023/11/30 06:21:53;;;;;;;24.17;15.98;;;2.90;99.90;;;;;;4969709;28;20027;-54
2023/11/30 06:24:19;;;;;;;26.25;16.23;;;2.90;99.90;;;;;;4969297;28;20302;-51
2023/11/30 06:26:44;;;;;;;25.27;15.57;;;2.90;99.90;;;;;;4969326;28;20047;-51
2023/11/30 06:29:11;;;;;;;21.42;14.57;;;2.90;99.90;;;;;;4952143;28;20080;-53
2023/11/30 06:31:37;;;;;;;22.67;15.38;;;3.00;99.90;;;;;;4969274;28;20110;-51
2023/11/30 06:34:03;;;;;;;22.13;14.80;;;2.90;99.90;;;;;;4969576;28;20023;-51
2023/11/30 06:36:29;;;;;;;23.25;14.85;;;2.90;99.90;;;;;;4969422;28;20509;-53
2023/11/30 06:38:54;;;;;;;24.75;16.75;;;2.90;99.90;;;;;;4955187;28;20070;-53
2023/11/30 06:41:20;;;;;;;21.45;15.50;;;2.80;99.90;;;;;;4972411;28;20082;-51
2023/11/30 06:43:45;;;;;;;24.00;15.88;;;2.80;99.90;;;;;;4972077;28;20106;-52
2023/11/30 06:46:21;;;;;;;27.80;15.60;;;2.80;99.90;;;;;;4972237;28;20023;-51
2023/11/30 06:48:47;;;;;;;23.95;15.57;;;2.70;99.90;;;;;;4972055;28;20018;-51
2023/11/30 06:51:13;;;;;;;27.42;16.88;;;2.80;99.90;;;;;;4992769;22;20134;-47
2023/11/30 06:53:39;;;;;;;27.65;16.83;;;2.70;99.90;;;;;;4971364;28;20066;-46
2023/11/30 06:56:05;;;;;;;23.52;15.80;;;2.70;99.90;;;;;;4972193;28;20304;-48
2023/11/30 06:58:30;;;;;;;26.52;17.05;;;2.70;99.90;;;;;;4954939;28;20591;-45
2023/11/30 07:00:56;;;;;;;26.52;17.67;;;2.70;99.90;;;;;;4972013;28;20110;-49
2023/11/30 07:03:23;;;;;;;24.27;14.93;;;2.70;99.90;;;;;;4971931;28;20027;-46
2023/11/30 07:05:48;;;;;;;28.48;16.90;;;2.70;99.90;;;;;;4972092;28;20073;-49
2023/11/30 07:08:14;;;;;;;24.13;16.90;;;2.80;99.90;;;;;;4971956;28;20062;-49
2023/11/30 07:10:40;;;;;;;22.27;15.52;;;2.80;99.90;;;;;;4972729;28;20050;-52
2023/11/30 07:13:06;;;;;;;30.45;16.63;;;2.80;99.90;;;;;;4971721;28;20462;-49
2023/11/30 07:15:31;;;;;;;28.25;16.33;;;2.80;99.90;;;;;;4954646;28;20029;-45
2023/11/30 07:17:57;;;;;;;23.95;15.82;;;2.80;99.90;;;;;;4972247;28;20259;-51
2023/11/30 07:20:22;;;;;;;26.70;15.80;;;2.80;99.90;;;;;;4971921;28;20201;-47
2023/11/30 07:22:48;;;;;;;25.38;16.58;;;2.70;99.90;;;;;;4954030;28;20037;-50
2023/11/30 07:25:13;;;;;;;21.55;14.70;;;2.80;99.90;;;;;;4972083;28;20046;-49
2023/11/30 07:27:39;;;;;;;24.33;16.13;;;2.80;99.90;;;;;;4972002;28;20444;-52
2023/11/30 07:30:08;;;;;;;25.15;15.90;;;2.90;99.90;;;;;;4971850;28;20112;-51
2023/11/30 07:32:33;;;;;;;25.00;17.05;;;2.90;99.90;;;;;;4971807;28;20444;-47
2023/11/30 07:34:59;;;;;;;22.75;15.68;;;2.90;99.90;;;;;;4972268;28;20023;-49
2023/11/30 07:37:25;;;;;;;25.38;16.23;;;2.80;99.90;;;;;;4971823;28;20034;-49
2023/11/30 07:39:50;;;;;;;26.50;17.27;;;2.70;99.90;;;;;;4971745;28;20505;-50
2023/11/30 07:42:19;;;;;;;23.60;14.50;;;2.70;99.90;;;;;;4971635;28;20031;-47
2023/11/30 07:44:44;;;;;;;28.10;15.57;;;2.70;99.90;;;;;;4971538;28;20059;-51
2023/11/30 07:47:11;;;;;;;23.25;15.52;;;2.80;99.90;;;;;;4954022;28;20073;-50
2023/11/30 07:49:36;;;;;;;23.58;16.10;;;2.80;99.90;;;;;;4954058;28;20038;-47
2023/11/30 07:52:02;;;;;;;23.52;15.63;;;2.90;99.90;;;;;;4971500;28;20031;-50
2023/11/30 07:54:27;;;;;;;23.08;15.27;;;2.90;99.90;;;;;;4971321;28;20093;-47
2023/11/30 07:56:53;;;;;;;24.27;16.70;;;2.90;99.90;;;;;;4971786;28;20077;-50
2023/11/30 07:59:18;;;;;;;24.25;15.48;;;2.80;99.90;;;;;;4971852;28;20050;-48
2023/11/30 08:01:44;;;;;;;29.42;16.48;;;2.90;99.90;;;;;;4954137;28;20026;-46
2023/11/30 08:04:09;;;;;;;23.60;15.25;;;2.90;99.90;;;;;;4971235;28;20035;-49
2023/11/30 08:06:35;;;;;;;20.15;14.75;;;3.00;99.90;;;;;;4971553;28;20130;-49
2023/11/30 08:09:00;;;;;;;22.00;15.45;;;3.10;99.90;;;;;;4972027;28;20042;-46
2023/11/30 08:11:26;;;;;;;22.02;15.63;;;3.20;99.90;;;;;;4971573;28;20022;-50
2023/11/30 08:13:51;;;;;;;22.58;14.85;;;3.20;99.90;;;;;;4971179;28;20475;-50
2023/11/30 08:16:17;;;;;;;23.40;15.45;;;3.40;99.90;;;;;;4971142;28;20084;-46
2023/11/30 08:18:42;;;;;;;26.92;16.75;;;3.50;99.90;;;;;;4953811;28;20494;-48
2023/11/30 08:21:08;;;;;;;33.47;17.05;;;3.40;99.90;;;;;;4970958;28;20023;-50
2023/11/30 08:23:35;;;;;;;25.70;17.08;;;3.20;99.90;;;;;;4953359;28;20039;-46
2023/11/30 08:26:03;;;;;;;25.77;16.45;;;3.20;99.90;;;;;;4970873;28;20042;-48
2023/11/30 08:28:29;;;;;;;26.00;17.30;;;3.10;99.90;;;;;;4970938;28;20048;-50
2023/11/30 08:30:55;;;;;;;25.15;17.58;;;3.10;99.90;;;;;;4953815;28;20050;-43
2023/11/30 08:33:21;;;;;;;22.83;15.15;;;3.10;99.90;;;;;;4953278;28;20035;-51
2023/11/30 08:35:46;;;;;;;26.42;16.42;;;3.20;99.90;;;;;;4971489;28;20110;-48
2023/11/30 08:38:12;;;;;;;24.98;17.17;;;3.40;99.90;;;;;;4970826;28;20112;-46
2023/11/30 08:40:38;;;;;;;26.60;17.45;;;3.40;99.90;;;;;;4970641;28;20125;-52
2023/11/30 08:43:03;;;;;;;32.08;16.95;;;3.50;99.90;;;;;;4970404;28;20034;-48
2023/11/30 08:45:29;;;;;;;23.13;14.48;;;4.00;99.90;;;;;;4970805;28;20023;-51
2023/11/30 08:47:55;;;;;;;18.77;13.18;;;4.70;99.90;;;;;;4970688;28;20034;-52
2023/11/30 08:50:21;;;;;;;17.27;12.63;;;5.60;99.90;;;;;;4970826;28;20346;-46
2023/11/30 08:52:46;;;;;;;23.15;13.07;;;5.80;99.90;;;;;;4970360;28;20023;-48
2023/11/30 08:55:12;;;;;;;18.48;13.05;;;5.80;99.90;;;;;;4953282;28;20061;-47
2023/11/30 08:57:39;;;;;;;19.25;11.57;;;5.70;99.90;;;;;;4970535;28;20106;-50
2023/11/30 09:00:12;;;;;;;21.75;12.90;;;5.60;99.90;;;;;;4969518;28;20482;-48
2023/11/30 09:02:38;;;;;;;21.60;14.05;;;5.50;99.90;;;;;;4970382;28;20497;-51
2023/11/30 09:05:07;;;;;;;18.65;13.20;;;5.50;99.90;;;;;;4970629;28;20037;-50
2023/11/30 09:07:33;;;;;;;21.25;13.88;;;5.40;99.90;;;;;;4970569;28;20029;-46
2023/11/30 09:09:59;;;;;;;18.17;13.15;;;5.40;99.90;;;;;;4952874;28;20110;-48
2023/11/30 09:12:25;;;;;;;19.15;13.38;;;5.30;99.90;;;;;;4952899;28;20039;-47
2023/11/30 09:14:51;;;;;;;19.48;14.10;;;5.10;99.90;;;;;;4952999;28;20081;-51
2023/11/30 09:17:16;;;;;;;22.77;13.75;;;4.90;99.90;;;;;;4970527;28;20102;-49
2023/11/30 09:19:42;;;;;;;22.35;14.88;;;4.80;99.90;;;;;;4970693;28;20019;-51
2023/11/30 09:22:07;;;;;;;19.77;14.13;;;4.70;99.90;;;;;;4970135;28;20104;-45
2023/11/30 09:24:33;;;;;;;22.23;15.13;;;4.60;99.90;;;;;;4970041;28;20027;-49
2023/11/30 09:26:59;;;;;;;21.95;14.57;;;4.50;99.90;;;;;;4970109;28;20023;-47
2023/11/30 09:29:24;;;;;;;21.63;14.43;;;4.50;99.90;;;;;;4952779;28;20034;-51
2023/11/30 09:31:50;;;;;;;20.00;14.20;;;4.60;99.90;;;;;;4970215;28;20547;-51
2023/11/30 09:34:16;;;;;;;19.95;14.23;;;4.70;99.90;;;;;;4970270;28;20027;-47
2023/11/30 09:36:41;;;;;;;21.67;15.32;;;4.70;99.90;;;;;;4970041;28;20057;-55
2023/11/30 09:39:07;;;;;;;18.67;13.93;;;4.90;99.90;;;;;;4954586;28;20019;-51
2023/11/30 09:41:35;;;;;;;16.88;13.32;;;5.20;99.90;;;;;;4955913;28;20058;-50
2023/11/30 09:44:01;;;;;;;17.52;12.32;;;5.70;99.90;;;;;;4954511;28;20015;-46
2023/11/30 09:46:26;;;;;;;19.17;12.85;;;6.20;99.90;;;;;;4963708;28;20041;-49
2023/11/30 09:48:52;;;;;;;14.98;11.63;;;6.80;99.90;;;;;;4952222;28;20050;-49
2023/11/30 09:51:20;;;;;;;16.15;11.65;;;7.20;99.90;;;;;;4954400;28;20042;-50
2023/11/30 09:53:46;;;;;;;15.68;11.73;;;7.30;99.90;;;;;;4959902;28;20027;-46
2023/11/30 09:56:12;;;;;;;15.23;11.23;;;7.50;99.90;;;;;;4953419;28;20039;-49
2023/11/30 09:58:40;;;;;;;13.65;10.55;;;7.90;99.90;;;;;;4957185;28;20044;-55
2023/11/30 10:01:07;;;;;;;13.00;9.73;;;8.50;99.90;;;;;;4969379;28;20026;-53
2023/11/30 10:03:33;;;;;;;12.65;10.63;;;8.50;99.90;;;;;;4960203;28;20154;-50
2023/11/30 10:06:00;;;;;;;13.30;10.55;;;8.30;99.90;;;;;;4950235;29;20034;-53
2023/11/30 10:08:26;;;;;;;13.88;10.82;;;7.80;99.90;;;;;;4950587;29;20371;-55
2023/11/30 10:10:51;;;;;;;14.10;10.63;;;7.50;99.90;;;;;;4933822;29;20059;-53
2023/11/30 10:13:17;;;;;;;24.52;11.57;;;7.10;99.90;;;;;;4953924;28;20035;-49
2023/11/30 10:15:45;;;;;;;16.00;11.18;;;6.90;99.90;;;;;;4965559;28;20019;-54
2023/11/30 10:18:11;;;;;;;14.88;11.10;;;6.50;99.90;;;;;;4964344;28;20019;-51
2023/11/30 10:20:37;;;;;;;12.40;10.20;;;6.30;99.90;;;;;;4953692;28;20069;-57
2023/11/30 10:23:13;;;;;;;19.67;12.60;;;6.00;99.90;;;;;;4949701;28;20023;-52
2023/11/30 10:25:40;;;;;;;15.00;10.98;;;5.80;99.90;;;;;;4964481;28;20042;-51
2023/11/30 10:28:09;;;;;;;16.33;11.02;;;5.60;99.90;;;;;;4954125;28;20061;-51
2023/11/30 10:30:39;;;;;;;19.23;11.27;;;5.50;99.90;;;;;;4960804;28;20503;-48
2023/11/30 10:33:11;;;;;;;16.85;11.82;;;5.50;99.90;;;;;;4956394;28;20560;-47
2023/11/30 10:35:36;;;;;;;15.40;11.65;;;5.40;99.90;;;;;;4953390;28;20024;-47
2023/11/30 10:38:04;;;;;;;15.68;10.95;;;5.40;99.90;;;;;;4935876;28;20122;-49
2023/11/30 10:40:31;;;;;;;14.55;11.38;;;5.30;99.90;;;;;;4953351;29;20039;-47
2023/11/30 10:43:03;;;;;;;19.90;11.70;;;5.30;99.90;;;;;;4953261;28;20440;-46
2023/11/30 10:45:31;;;;;;;18.50;12.05;;;5.30;99.90;;;;;;4936418;29;20032;-48
2023/11/30 10:47:58;;;;;;;18.52;12.35;;;5.30;99.90;;;;;;4953441;29;20024;-47
2023/11/30 10:50:24;;;;;;;18.33;12.95;;;5.30;99.90;;;;;;4952926;28;20039;-49
2023/11/30 10:52:52;;;;;;;16.88;11.77;;;5.20;99.90;;;;;;4952808;29;20483;-48
2023/11/30 10:55:19;;;;;;;16.17;12.05;;;5.20;99.90;;;;;;4935883;29;20027;-49
2023/11/30 10:57:46;;;;;;;15.27;10.85;;;5.20;99.90;;;;;;4976602;28;20029;-53
2023/11/30 11:00:16;;;;;;;17.05;11.52;;;5.20;99.90;;;;;;4975703;28;20027;-51
2023/11/30 11:02:47;;;;;;;14.55;11.40;;;5.30;99.90;;;;;;4971406;28;20429;-49
2023/11/30 11:05:14;;;;;;;20.45;10.50;;;5.30;99.90;;;;;;4972060;28;20056;-49
2023/11/30 11:07:58;;;;;;;15.85;11.40;;;5.30;99.90;;;;;;4951775;28;20127;-50
2023/11/30 11:10:36;;;;;;;13.63;10.93;;;5.50;99.90;;;;;;4972127;28;20042;-47
2023/11/30 11:13:02;;;;;;;20.08;13.32;;;5.70;99.90;;;;;;4971699;28;20027;-48
2023/11/30 11:15:29;;;;;;;18.23;12.80;;;5.60;99.90;;;;;;4970653;28;20035;-51
2023/11/30 11:18:02;;;;;;;16.67;12.25;;;5.70;99.90;;;;;;4964655;28;20031;-47
2023/11/30 11:20:30;;;;;;;16.52;12.23;;;5.80;99.90;;;;;;4952680;28;20490;-47
2023/11/30 11:23:04;;;;;;;20.52;14.13;;;5.90;99.90;;;;;;4934439;29;20164;-47
2023/11/30 11:25:38;;;;;;;19.70;12.68;;;5.70;99.90;;;;;;4953655;28;20390;-46
2023/11/30 11:28:03;;;;;;;24.70;13.70;;;5.80;99.90;;;;;;4954456;28;20050;-47
2023/11/30 11:30:29;;;;;;;20.35;13.70;;;5.60;99.90;;;;;;4962312;28;20023;-51
2023/11/30 11:32:59;;;;;;;22.65;13.23;;;5.60;99.90;;;;;;4985207;28;20025;-53
2023/11/30 11:35:27;;;;;;;22.52;13.05;;;5.70;99.90;;;;;;4989296;28;20448;-50
2023/11/30 11:37:57;;;;;;;21.35;13.60;;;5.70;99.90;;;;;;4971878;28;20298;-49
2023/11/30 11:40:23;;;;;;;17.17;12.55;;;5.80;99.90;;;;;;4971951;28;20102;-50
2023/11/30 11:42:48;;;;;;;17.80;13.30;;;5.80;99.90;;;;;;4971302;28;20118;-50
2023/11/30 11:45:14;;;;;;;19.05;11.27;;;5.70;99.90;;;;;;4964417;28;20119;-48
2023/11/30 11:47:40;;;;;;;20.45;12.95;;;5.60;99.90;;;;;;4953206;28;20046;-52
2023/11/30 11:50:07;;;;;;;19.20;12.10;;;5.70;99.90;;;;;;4952394;28;20081;-49
2023/11/30 11:52:32;;;;;;;15.70;12.68;;;5.70;99.90;;;;;;4951993;29;20023;-48
2023/11/30 11:55:03;;;;;;;17.38;11.77;;;5.70;99.90;;;;;;4954867;28;20038;-51
2023/11/30 11:57:37;;;;;;;18.83;12.45;;;5.80;99.90;;;;;;4954413;28;20034;-48
2023/11/30 12:00:13;;;;;;;16.90;11.52;;;5.90;99.90;;;;;;4955378;28;20061;-48
2023/11/30 12:02:39;;;;;;;14.05;10.13;;;5.90;99.90;;;;;;4953515;28;20110;-52
2023/11/30 12:05:10;;;;;;;17.20;10.88;;;5.90;99.90;;;;;;4953666;28;20153;-47
2023/11/30 12:07:47;;;;;;;23.80;13.65;;;5.80;99.90;;;;;;4999340;28;20031;-47
2023/11/30 12:10:22;;;;;;;18.30;12.27;;;5.70;99.90;;;;;;4963685;28;20135;-50
2023/11/30 12:12:48;;;;;;;16.77;12.07;;;5.70;99.90;;;;;;4960236;28;20141;-48
2023/11/30 12:15:14;;;;;;;16.30;12.20;;;5.70;99.90;;;;;;4955360;28;20141;-46
2023/11/30 12:17:39;;;;;;;17.30;12.80;;;5.60;99.90;;;;;;4967350;28;20028;-49
2023/11/30 12:20:05;;;;;;;18.92;11.80;;;5.70;99.90;;;;;;4951720;28;20050;-51
2023/11/30 12:22:31;;;;;;;16.52;11.60;;;5.60;99.90;;;;;;4951684;28;20499;-48
2023/11/30 12:24:56;;;;;;;18.23;11.90;;;5.70;99.90;;;;;;4951582;28;20036;-49
2023/11/30 12:27:21;;;;;;;18.23;11.88;;;5.80;99.90;;;;;;4951775;28;20031;-47
2023/11/30 12:29:47;;;;;;;14.40;11.35;;;5.70;99.90;;;;;;4951586;29;20041;-53